Kang Man — VRAC3 — position and weather

sailwx.info

Track history (hours):
 
Tides and Currents Weather Stations Pressure Air Temp Water Temp Dewpoint Dewpoint Depression Visibility Wind Speed Wind Dir Waves Ship Positions

Kang Man

Last reported at 2017-Sep-24 10:05 UTC. Time now 2017-Sep-26 11:09 UTC.
Position N 39°03' W 011°13'.

Length 190 m; draft 12.4 m.

Type: Cargo ship. MMSI: 477360500.

Date/timePositionNaut miles runAvg speedWind from/ knotsBaromVisibWave heightAir tempDewpointWater temp
2017-Sep-24 10:05N 39°03' W 011°13'111.1
2017-Sep-24 10:01N 39°02' W 011°13'611.1
2017-Sep-24 09:31N 38°57' W 011°15'611.5
2017-Sep-24 09:00N 38°51' W 011°17'612.3
2017-Sep-24 08:31N 38°45' W 011°19'612.1
2017-Sep-24 07:58N 38°39' W 011°21'511.4
2017-Sep-24 07:31N 38°34' W 011°23'611.3
2017-Sep-24 07:00N 38°28' W 011°25'611.5
2017-Sep-24 06:31N 38°23' W 011°27'611.4
2017-Sep-24 06:00N 38°17' W 011°29'511.0
2017-Sep-24 05:31N 38°12' W 011°31'611.2
2017-Sep-24 05:01N 38°07' W 011°33'510.9
2017-Sep-24 04:31N 38°01' W 011°34'510.8
2017-Sep-24 04:00N 37°56' W 011°36'511.0
2017-Sep-24 03:31N 37°51' W 011°38'611.1
2017-Sep-24 03:01N 37°46' W 011°40'611.2
2017-Sep-24 02:31N 37°40' W 011°42'511.0
2017-Sep-24 02:01N 37°35' W 011°44'611.1
2017-Sep-24 01:31N 37°30' W 011°46'611.3
2017-Sep-24 01:00N 37°24' W 011°48'611.1
2017-Sep-24 00:30N 37°19' W 011°49'510.9
2017-Sep-24 00:01N 37°13' W 011°51'611.0
2017-Sep-23 23:31N 37°08' W 011°53'611.2
2017-Sep-23 23:00N 37°03' W 011°55'611.3
2017-Sep-23 22:31N 36°57' W 011°57'611.6
2017-Sep-23 22:01N 36°52' W 011°59'611.4
2017-Sep-23 21:30N 36°46' W 012°01'611.1
2017-Sep-23 21:00N 36°41' W 012°03'510.8
2017-Sep-23 20:31N 36°36' W 012°05'510.9
2017-Sep-23 20:01N 36°31' W 012°07'43010.2
2017-Sep-22 02:00N 29°37' W 014°25'710.4
2017-Sep-22 01:17N 29°30' W 014°27'310.4
2017-Sep-22 00:59N 29°27' W 014°28'610.7
2017-Sep-22 00:24N 29°21' W 014°30'510.6
2017-Sep-21 23:53N 29°15' W 014°32'2910.2
2017-Sep-21 21:03N 28°47' W 014°41'110.4
2017-Sep-21 20:59N 28°47' W 014°41'510.4
2017-Sep-21 20:30N 28°42' W 014°43'510.7
2017-Sep-21 20:00N 28°37' W 014°44'510.8
2017-Sep-21 19:30N 28°32' W 014°46'510.5
2017-Sep-21 19:00N 28°27' W 014°47'510.4
2017-Sep-21 18:30N 28°22' W 014°49'510.6
2017-Sep-21 18:00N 28°17' W 014°51'510.5
2017-Sep-21 17:30N 28°12' W 014°53'510.8
2017-Sep-21 17:00N 28°06' W 014°55'510.8
2017-Sep-21 16:30N 28°01' W 014°57'510.7
2017-Sep-21 16:01N 27°56' W 014°59'510.7
2017-Sep-21 15:30N 27°51' W 015°01'510.8
2017-Sep-21 15:00N 27°46' W 015°03'510.9
2017-Sep-21 14:31N 27°41' W 015°06'610.9
2017-Sep-21 14:00N 27°36' W 015°08'510.8
2017-Sep-21 13:30N 27°31' W 015°10'34010.8
2017-Sep-20 06:03N 22°13' W 017°24'110.3
2017-Sep-20 05:58N 22°12' W 017°24'  
Track history (hours):
 
Tides and Currents Weather Stations Pressure Air Temp Water Temp Dewpoint Dewpoint Depression Visibility Wind Speed Wind Dir Waves Ship Positions

Kang Man

Last reported at 2017-Sep-24 10:05 UTC. Time now 2017-Sep-26 11:09 UTC.
Position N 39°03' W 011°13'.

Length 190 m; draft 12.4 m.

Type: Cargo ship. MMSI: 477360500.

Date/timePositionNaut miles runAvg speedWind from/ knotsBaromVisibWave heightAir tempDewpointWater temp
2017-Sep-24 10:05N 39°03' W 011°13'111.1
2017-Sep-24 10:01N 39°02' W 011°13'611.1
2017-Sep-24 09:31N 38°57' W 011°15'611.5
2017-Sep-24 09:00N 38°51' W 011°17'612.3
2017-Sep-24 08:31N 38°45' W 011°19'612.1
2017-Sep-24 07:58N 38°39' W 011°21'511.4
2017-Sep-24 07:31N 38°34' W 011°23'611.3
2017-Sep-24 07:00N 38°28' W 011°25'611.5
2017-Sep-24 06:31N 38°23' W 011°27'611.4
2017-Sep-24 06:00N 38°17' W 011°29'511.0
2017-Sep-24 05:31N 38°12' W 011°31'611.2
2017-Sep-24 05:01N 38°07' W 011°33'510.9
2017-Sep-24 04:31N 38°01' W 011°34'510.8
2017-Sep-24 04:00N 37°56' W 011°36'511.0
2017-Sep-24 03:31N 37°51' W 011°38'611.1
2017-Sep-24 03:01N 37°46' W 011°40'611.2
2017-Sep-24 02:31N 37°40' W 011°42'511.0
2017-Sep-24 02:01N 37°35' W 011°44'611.1
2017-Sep-24 01:31N 37°30' W 011°46'611.3
2017-Sep-24 01:00N 37°24' W 011°48'611.1
2017-Sep-24 00:30N 37°19' W 011°49'510.9
2017-Sep-24 00:01N 37°13' W 011°51'611.0
2017-Sep-23 23:31N 37°08' W 011°53'611.2
2017-Sep-23 23:00N 37°03' W 011°55'611.3
2017-Sep-23 22:31N 36°57' W 011°57'611.6
2017-Sep-23 22:01N 36°52' W 011°59'611.4
2017-Sep-23 21:30N 36°46' W 012°01'611.1
2017-Sep-23 21:00N 36°41' W 012°03'510.8
2017-Sep-23 20:31N 36°36' W 012°05'510.9
2017-Sep-23 20:01N 36°31' W 012°07'43010.2
2017-Sep-22 02:00N 29°37' W 014°25'710.4
2017-Sep-22 01:17N 29°30' W 014°27'310.4
2017-Sep-22 00:59N 29°27' W 014°28'610.7
2017-Sep-22 00:24N 29°21' W 014°30'510.6
2017-Sep-21 23:53N 29°15' W 014°32'2910.2
2017-Sep-21 21:03N 28°47' W 014°41'110.4
2017-Sep-21 20:59N 28°47' W 014°41'510.4
2017-Sep-21 20:30N 28°42' W 014°43'510.7
2017-Sep-21 20:00N 28°37' W 014°44'510.8
2017-Sep-21 19:30N 28°32' W 014°46'510.5
2017-Sep-21 19:00N 28°27' W 014°47'510.4
2017-Sep-21 18:30N 28°22' W 014°49'510.6
2017-Sep-21 18:00N 28°17' W 014°51'510.5
2017-Sep-21 17:30N 28°12' W 014°53'510.8
2017-Sep-21 17:00N 28°06' W 014°55'510.8
2017-Sep-21 16:30N 28°01' W 014°57'510.7
2017-Sep-21 16:01N 27°56' W 014°59'510.7
2017-Sep-21 15:30N 27°51' W 015°01'510.8
2017-Sep-21 15:00N 27°46' W 015°03'510.9
2017-Sep-21 14:31N 27°41' W 015°06'610.9
2017-Sep-21 14:00N 27°36' W 015°08'510.8
2017-Sep-21 13:30N 27°31' W 015°10'34010.8
2017-Sep-20 06:03N 22°13' W 017°24'110.3
2017-Sep-20 05:58N 22°12' W 017°24'  

Dump ship's entire track history